sensor_id;sensor_type;location;lat;lon;timestamp;P1;durP1;ratioP1;P2;durP2;ratioP2
74793;SDS011;63320;50.768;6.724;2023-07-31T00:00:32;7.88;;;2.97;;
74793;SDS011;63320;50.768;6.724;2023-07-31T00:02:58;9.43;;;2.40;;
74793;SDS011;63320;50.768;6.724;2023-07-31T00:05:23;7.43;;;2.55;;
74793;SDS011;63320;50.768;6.724;2023-07-31T00:07:48;8.38;;;2.17;;
74793;SDS011;63320;50.768;6.724;2023-07-31T00:10:14;4.97;;;1.98;;
74793;SDS011;63320;50.768;6.724;2023-07-31T00:12:41;5.38;;;2.05;;
74793;SDS011;63320;50.768;6.724;2023-07-31T00:15:08;7.63;;;2.22;;
74793;SDS011;63320;50.768;6.724;2023-07-31T00:17:35;6.03;;;2.20;;
74793;SDS011;63320;50.768;6.724;2023-07-31T00:20:01;9.15;;;1.95;;
74793;SDS011;63320;50.768;6.724;2023-07-31T00:22:26;4.20;;;1.67;;
74793;SDS011;63320;50.768;6.724;2023-07-31T00:24:52;6.00;;;1.92;;
74793;SDS011;63320;50.768;6.724;2023-07-31T00:27:17;5.55;;;1.90;;
74793;SDS011;63320;50.768;6.724;2023-07-31T00:29:42;9.10;;;2.40;;
74793;SDS011;63320;50.768;6.724;2023-07-31T00:32:08;6.80;;;2.10;;
74793;SDS011;63320;50.768;6.724;2023-07-31T00:34:34;6.32;;;1.90;;
74793;SDS011;63320;50.768;6.724;2023-07-31T00:37:00;7.28;;;2.20;;
74793;SDS011;63320;50.768;6.724;2023-07-31T00:39:25;7.80;;;2.45;;
74793;SDS011;63320;50.768;6.724;2023-07-31T00:41:51;5.38;;;2.03;;
74793;SDS011;63320;50.768;6.724;2023-07-31T00:44:16;6.90;;;2.53;;
74793;SDS011;63320;50.768;6.724;2023-07-31T00:46:41;9.38;;;2.50;;
74793;SDS011;63320;50.768;6.724;2023-07-31T00:49:07;7.80;;;2.17;;
74793;SDS011;63320;50.768;6.724;2023-07-31T00:51:35;8.52;;;2.22;;
74793;SDS011;63320;50.768;6.724;2023-07-31T00:54:00;11.52;;;2.72;;
74793;SDS011;63320;50.768;6.724;2023-07-31T00:56:27;7.63;;;2.20;;
74793;SDS011;63320;50.768;6.724;2023-07-31T00:58:53;5.97;;;1.80;;
74793;SDS011;63320;50.768;6.724;2023-07-31T01:01:19;8.30;;;2.40;;
74793;SDS011;63320;50.768;6.724;2023-07-31T01:03:44;6.25;;;2.25;;
74793;SDS011;63320;50.768;6.724;2023-07-31T01:06:13;7.88;;;2.30;;
74793;SDS011;63320;50.768;6.724;2023-07-31T01:08:42;5.55;;;1.95;;
74793;SDS011;63320;50.768;6.724;2023-07-31T01:11:14;7.75;;;2.42;;
74793;SDS011;63320;50.768;6.724;2023-07-31T01:13:42;6.53;;;2.33;;
74793;SDS011;63320;50.768;6.724;2023-07-31T01:16:09;5.80;;;1.75;;
74793;SDS011;63320;50.768;6.724;2023-07-31T01:18:34;6.00;;;1.75;;
74793;SDS011;63320;50.768;6.724;2023-07-31T01:21:02;6.82;;;1.90;;
74793;SDS011;63320;50.768;6.724;2023-07-31T01:23:46;6.40;;;1.83;;
74793;SDS011;63320;50.768;6.724;2023-07-31T01:26:28;7.38;;;2.10;;
74793;SDS011;63320;50.768;6.724;2023-07-31T01:29:00;7.07;;;2.30;;
74793;SDS011;63320;50.768;6.724;2023-07-31T01:31:29;6.18;;;2.67;;
74793;SDS011;63320;50.768;6.724;2023-07-31T01:33:55;6.00;;;2.03;;
74793;SDS011;63320;50.768;6.724;2023-07-31T01:36:23;6.72;;;2.28;;
74793;SDS011;63320;50.768;6.724;2023-07-31T01:38:48;6.13;;;2.40;;
74793;SDS011;63320;50.768;6.724;2023-07-31T01:41:16;5.88;;;2.00;;
74793;SDS011;63320;50.768;6.724;2023-07-31T01:43:43;6.50;;;2.00;;
74793;SDS011;63320;50.768;6.724;2023-07-31T01:46:08;7.32;;;2.25;;
74793;SDS011;63320;50.768;6.724;2023-07-31T01:48:33;9.55;;;2.42;;
74793;SDS011;63320;50.768;6.724;2023-07-31T01:51:00;6.30;;;2.33;;
74793;SDS011;63320;50.768;6.724;2023-07-31T01:53:25;7.53;;;2.25;;
74793;SDS011;63320;50.768;6.724;2023-07-31T01:55:50;8.02;;;2.42;;
74793;SDS011;63320;50.768;6.724;2023-07-31T01:58:16;7.47;;;2.40;;
74793;SDS011;63320;50.768;6.724;2023-07-31T02:00:42;5.70;;;2.40;;
74793;SDS011;63320;50.768;6.724;2023-07-31T02:03:08;6.45;;;2.17;;
74793;SDS011;63320;50.768;6.724;2023-07-31T02:05:33;7.10;;;2.47;;
74793;SDS011;63320;50.768;6.724;2023-07-31T02:07:58;8.25;;;2.65;;
74793;SDS011;63320;50.768;6.724;2023-07-31T02:10:24;8.75;;;2.50;;
74793;SDS011;63320;50.768;6.724;2023-07-31T02:12:49;7.50;;;2.50;;
74793;SDS011;63320;50.768;6.724;2023-07-31T02:15:14;9.88;;;2.60;;
74793;SDS011;63320;50.768;6.724;2023-07-31T02:17:41;7.32;;;2.63;;
74793;SDS011;63320;50.768;6.724;2023-07-31T02:20:07;8.38;;;2.97;;
74793;SDS011;63320;50.768;6.724;2023-07-31T02:22:33;10.10;;;2.58;;
74793;SDS011;63320;50.768;6.724;2023-07-31T02:24:58;8.20;;;2.30;;
74793;SDS011;63320;50.768;6.724;2023-07-31T02:27:23;7.45;;;2.30;;
74793;SDS011;63320;50.768;6.724;2023-07-31T02:29:49;8.43;;;2.35;;
74793;SDS011;63320;50.768;6.724;2023-07-31T02:32:14;7.97;;;2.75;;
74793;SDS011;63320;50.768;6.724;2023-07-31T02:34:41;7.28;;;2.80;;
74793;SDS011;63320;50.768;6.724;2023-07-31T02:37:06;6.85;;;2.53;;
74793;SDS011;63320;50.768;6.724;2023-07-31T02:39:31;8.00;;;2.67;;
74793;SDS011;63320;50.768;6.724;2023-07-31T02:41:57;10.48;;;2.65;;
74793;SDS011;63320;50.768;6.724;2023-07-31T02:44:22;10.98;;;2.78;;
74793;SDS011;63320;50.768;6.724;2023-07-31T02:46:47;7.68;;;2.75;;
74793;SDS011;63320;50.768;6.724;2023-07-31T02:49:12;10.00;;;2.83;;
74793;SDS011;63320;50.768;6.724;2023-07-31T02:51:39;8.70;;;2.92;;
74793;SDS011;63320;50.768;6.724;2023-07-31T02:54:04;9.95;;;3.22;;
74793;SDS011;63320;50.768;6.724;2023-07-31T02:56:30;8.07;;;2.58;;
74793;SDS011;63320;50.768;6.724;2023-07-31T02:58:55;8.35;;;2.97;;
74793;SDS011;63320;50.768;6.724;2023-07-31T03:01:20;8.48;;;2.75;;
74793;SDS011;63320;50.768;6.724;2023-07-31T03:03:46;8.88;;;2.90;;
74793;SDS011;63320;50.768;6.724;2023-07-31T03:06:11;12.55;;;3.67;;
74793;SDS011;63320;50.768;6.724;2023-07-31T03:08:38;7.90;;;2.72;;
74793;SDS011;63320;50.768;6.724;2023-07-31T03:11:03;8.30;;;2.80;;
74793;SDS011;63320;50.768;6.724;2023-07-31T03:13:28;7.32;;;2.72;;
74793;SDS011;63320;50.768;6.724;2023-07-31T03:15:54;9.52;;;2.80;;
74793;SDS011;63320;50.768;6.724;2023-07-31T03:18:19;8.55;;;2.85;;
74793;SDS011;63320;50.768;6.724;2023-07-31T03:20:44;8.45;;;2.80;;
74793;SDS011;63320;50.768;6.724;2023-07-31T03:23:10;8.75;;;3.05;;
74793;SDS011;63320;50.768;6.724;2023-07-31T03:25:36;8.27;;;3.10;;
74793;SDS011;63320;50.768;6.724;2023-07-31T03:28:02;7.40;;;2.67;;
74793;SDS011;63320;50.768;6.724;2023-07-31T03:30:27;8.13;;;2.60;;
74793;SDS011;63320;50.768;6.724;2023-07-31T03:32:52;7.10;;;3.00;;
74793;SDS011;63320;50.768;6.724;2023-07-31T03:35:18;11.95;;;3.33;;
74793;SDS011;63320;50.768;6.724;2023-07-31T03:37:43;9.52;;;2.78;;
74793;SDS011;63320;50.768;6.724;2023-07-31T03:40:09;7.15;;;2.45;;
74793;SDS011;63320;50.768;6.724;2023-07-31T03:42:36;9.90;;;3.33;;
74793;SDS011;63320;50.768;6.724;2023-07-31T03:45:02;8.23;;;2.72;;
74793;SDS011;63320;50.768;6.724;2023-07-31T03:47:28;8.05;;;2.70;;
74793;SDS011;63320;50.768;6.724;2023-07-31T03:49:54;7.65;;;2.78;;
74793;SDS011;63320;50.768;6.724;2023-07-31T03:52:19;8.98;;;2.65;;
74793;SDS011;63320;50.768;6.724;2023-07-31T03:54:44;8.40;;;2.85;;
74793;SDS011;63320;50.768;6.724;2023-07-31T03:57:10;8.02;;;3.20;;
74793;SDS011;63320;50.768;6.724;2023-07-31T03:59:36;7.68;;;3.72;;
74793;SDS011;63320;50.768;6.724;2023-07-31T04:02:02;11.65;;;3.60;;
74793;SDS011;63320;50.768;6.724;2023-07-31T04:04:27;7.88;;;2.83;;
74793;SDS011;63320;50.768;6.724;2023-07-31T04:06:53;6.57;;;3.13;;
74793;SDS011;63320;50.768;6.724;2023-07-31T04:09:18;11.18;;;3.13;;
74793;SDS011;63320;50.768;6.724;2023-07-31T04:11:43;7.50;;;2.83;;
74793;SDS011;63320;50.768;6.724;2023-07-31T04:14:09;8.68;;;3.20;;
74793;SDS011;63320;50.768;6.724;2023-07-31T04:16:35;8.07;;;2.95;;
74793;SDS011;63320;50.768;6.724;2023-07-31T04:19:01;8.98;;;2.80;;
74793;SDS011;63320;50.768;6.724;2023-07-31T04:21:26;7.80;;;2.95;;
74793;SDS011;63320;50.768;6.724;2023-07-31T04:23:51;10.02;;;3.13;;
74793;SDS011;63320;50.768;6.724;2023-07-31T04:26:17;7.30;;;2.97;;
74793;SDS011;63320;50.768;6.724;2023-07-31T04:28:42;8.02;;;3.10;;
74793;SDS011;63320;50.768;6.724;2023-07-31T04:31:07;7.93;;;3.10;;
74793;SDS011;63320;50.768;6.724;2023-07-31T04:33:34;10.13;;;3.70;;
74793;SDS011;63320;50.768;6.724;2023-07-31T04:35:59;9.73;;;3.22;;
74793;SDS011;63320;50.768;6.724;2023-07-31T04:38:25;8.00;;;3.10;;
74793;SDS011;63320;50.768;6.724;2023-07-31T04:40:50;6.82;;;2.90;;
74793;SDS011;63320;50.768;6.724;2023-07-31T04:43:15;7.63;;;3.05;;
74793;SDS011;63320;50.768;6.724;2023-07-31T04:45:42;11.23;;;3.15;;
74793;SDS011;63320;50.768;6.724;2023-07-31T04:48:10;8.00;;;3.15;;
74793;SDS011;63320;50.768;6.724;2023-07-31T04:50:36;7.32;;;3.13;;
74793;SDS011;63320;50.768;6.724;2023-07-31T04:53:01;7.63;;;3.20;;
74793;SDS011;63320;50.768;6.724;2023-07-31T04:55:27;8.88;;;3.08;;
74793;SDS011;63320;50.768;6.724;2023-07-31T04:57:52;8.20;;;2.95;;
74793;SDS011;63320;50.768;6.724;2023-07-31T05:00:17;8.00;;;3.10;;
74793;SDS011;63320;50.768;6.724;2023-07-31T05:02:43;9.43;;;2.80;;
74793;SDS011;63320;50.768;6.724;2023-07-31T05:05:08;8.02;;;2.92;;
74793;SDS011;63320;50.768;6.724;2023-07-31T05:07:35;9.20;;;2.85;;
74793;SDS011;63320;50.768;6.724;2023-07-31T05:10:00;8.40;;;3.10;;
74793;SDS011;63320;50.768;6.724;2023-07-31T05:12:26;7.78;;;3.17;;
74793;SDS011;63320;50.768;6.724;2023-07-31T05:14:51;10.60;;;3.20;;
74793;SDS011;63320;50.768;6.724;2023-07-31T05:17:16;6.65;;;2.92;;
74793;SDS011;63320;50.768;6.724;2023-07-31T05:19:42;6.13;;;2.83;;
74793;SDS011;63320;50.768;6.724;2023-07-31T05:22:07;5.75;;;2.50;;
74793;SDS011;63320;50.768;6.724;2023-07-31T05:24:34;5.57;;;2.58;;
74793;SDS011;63320;50.768;6.724;2023-07-31T05:26:59;11.30;;;3.30;;
74793;SDS011;63320;50.768;6.724;2023-07-31T05:29:24;8.18;;;3.03;;
74793;SDS011;63320;50.768;6.724;2023-07-31T05:31:50;8.77;;;3.20;;
74793;SDS011;63320;50.768;6.724;2023-07-31T05:34:15;7.13;;;2.80;;
74793;SDS011;63320;50.768;6.724;2023-07-31T05:36:40;8.15;;;3.25;;
74793;SDS011;63320;50.768;6.724;2023-07-31T05:39:06;7.47;;;3.13;;
74793;SDS011;63320;50.768;6.724;2023-07-31T05:41:32;5.80;;;2.88;;
74793;SDS011;63320;50.768;6.724;2023-07-31T05:43:58;9.23;;;2.85;;
74793;SDS011;63320;50.768;6.724;2023-07-31T05:46:23;7.78;;;2.70;;
74793;SDS011;63320;50.768;6.724;2023-07-31T05:48:48;7.88;;;3.25;;
74793;SDS011;63320;50.768;6.724;2023-07-31T05:51:14;8.95;;;2.90;;
74793;SDS011;63320;50.768;6.724;2023-07-31T05:53:39;6.88;;;2.90;;
74793;SDS011;63320;50.768;6.724;2023-07-31T05:56:04;8.63;;;2.95;;
74793;SDS011;63320;50.768;6.724;2023-07-31T05:58:31;6.15;;;2.70;;
74793;SDS011;63320;50.768;6.724;2023-07-31T06:00:56;6.10;;;2.70;;
74793;SDS011;63320;50.768;6.724;2023-07-31T06:03:22;6.57;;;2.80;;
74793;SDS011;63320;50.768;6.724;2023-07-31T06:05:47;10.10;;;3.30;;
74793;SDS011;63320;50.768;6.724;2023-07-31T06:08:12;7.60;;;3.08;;
74793;SDS011;63320;50.768;6.724;2023-07-31T06:10:38;8.48;;;3.38;;
74793;SDS011;63320;50.768;6.724;2023-07-31T06:13:03;9.63;;;3.08;;
74793;SDS011;63320;50.768;6.724;2023-07-31T06:15:30;7.85;;;2.85;;
74793;SDS011;63320;50.768;6.724;2023-07-31T06:17:55;8.65;;;3.30;;
74793;SDS011;63320;50.768;6.724;2023-07-31T06:20:20;7.30;;;3.08;;
74793;SDS011;63320;50.768;6.724;2023-07-31T06:22:46;6.97;;;3.10;;
74793;SDS011;63320;50.768;6.724;2023-07-31T06:25:11;8.90;;;3.20;;
74793;SDS011;63320;50.768;6.724;2023-07-31T06:27:37;8.68;;;2.92;;
74793;SDS011;63320;50.768;6.724;2023-07-31T06:30:02;7.85;;;3.25;;
74793;SDS011;63320;50.768;6.724;2023-07-31T06:32:29;7.47;;;3.38;;
74793;SDS011;63320;50.768;6.724;2023-07-31T06:34:55;9.15;;;3.20;;
74793;SDS011;63320;50.768;6.724;2023-07-31T06:37:20;10.68;;;3.58;;
74793;SDS011;63320;50.768;6.724;2023-07-31T06:39:45;7.32;;;3.10;;
74793;SDS011;63320;50.768;6.724;2023-07-31T06:42:11;8.90;;;2.63;;
74793;SDS011;63320;50.768;6.724;2023-07-31T06:44:36;7.15;;;2.67;;
74793;SDS011;63320;50.768;6.724;2023-07-31T06:47:01;6.72;;;2.95;;
74793;SDS011;63320;50.768;6.724;2023-07-31T06:49:28;8.35;;;3.50;;
74793;SDS011;63320;50.768;6.724;2023-07-31T06:51:53;9.93;;;2.80;;
74793;SDS011;63320;50.768;6.724;2023-07-31T06:54:19;7.78;;;3.20;;
74793;SDS011;63320;50.768;6.724;2023-07-31T06:56:44;8.30;;;3.03;;
74793;SDS011;63320;50.768;6.724;2023-07-31T06:59:09;10.07;;;3.40;;
74793;SDS011;63320;50.768;6.724;2023-07-31T07:01:35;7.03;;;2.95;;
74793;SDS011;63320;50.768;6.724;2023-07-31T07:04:00;8.15;;;2.90;;
74793;SDS011;63320;50.768;6.724;2023-07-31T07:06:27;6.85;;;3.30;;
74793;SDS011;63320;50.768;6.724;2023-07-31T07:08:52;7.18;;;2.75;;
74793;SDS011;63320;50.768;6.724;2023-07-31T07:11:17;7.38;;;2.65;;
74793;SDS011;63320;50.768;6.724;2023-07-31T07:13:43;7.00;;;2.80;;
74793;SDS011;63320;50.768;6.724;2023-07-31T07:16:08;7.05;;;2.47;;
74793;SDS011;63320;50.768;6.724;2023-07-31T07:18:33;6.63;;;2.95;;
74793;SDS011;63320;50.768;6.724;2023-07-31T07:20:59;7.85;;;2.60;;
74793;SDS011;63320;50.768;6.724;2023-07-31T07:23:25;7.85;;;2.50;;
74793;SDS011;63320;50.768;6.724;2023-07-31T07:25:51;8.13;;;2.60;;
74793;SDS011;63320;50.768;6.724;2023-07-31T07:28:16;9.15;;;2.80;;
74793;SDS011;63320;50.768;6.724;2023-07-31T07:30:42;8.23;;;2.72;;
74793;SDS011;63320;50.768;6.724;2023-07-31T07:33:07;8.45;;;2.90;;
74793;SDS011;63320;50.768;6.724;2023-07-31T07:35:32;8.43;;;2.45;;
74793;SDS011;63320;50.768;6.724;2023-07-31T07:37:58;6.05;;;2.40;;
74793;SDS011;63320;50.768;6.724;2023-07-31T07:40:25;8.23;;;2.97;;
74793;SDS011;63320;50.768;6.724;2023-07-31T07:42:50;7.13;;;2.60;;
74793;SDS011;63320;50.768;6.724;2023-07-31T07:45:16;7.57;;;2.40;;
74793;SDS011;63320;50.768;6.724;2023-07-31T07:47:41;7.32;;;2.80;;
74793;SDS011;63320;50.768;6.724;2023-07-31T07:50:07;8.20;;;2.50;;
74793;SDS011;63320;50.768;6.724;2023-07-31T07:52:33;6.28;;;2.10;;
74793;SDS011;63320;50.768;6.724;2023-07-31T07:54:58;6.28;;;2.50;;
74793;SDS011;63320;50.768;6.724;2023-07-31T07:57:25;7.32;;;2.30;;
74793;SDS011;63320;50.768;6.724;2023-07-31T07:59:50;5.55;;;1.92;;
74793;SDS011;63320;50.768;6.724;2023-07-31T08:02:16;5.85;;;2.00;;
74793;SDS011;63320;50.768;6.724;2023-07-31T08:04:41;5.28;;;2.05;;
74793;SDS011;63320;50.768;6.724;2023-07-31T08:07:06;5.13;;;2.00;;
74793;SDS011;63320;50.768;6.724;2023-07-31T08:09:32;7.10;;;2.40;;
74793;SDS011;63320;50.768;6.724;2023-07-31T08:11:57;6.57;;;2.20;;
74793;SDS011;63320;50.768;6.724;2023-07-31T08:14:24;8.07;;;1.88;;
74793;SDS011;63320;50.768;6.724;2023-07-31T08:16:49;7.13;;;1.85;;
74793;SDS011;63320;50.768;6.724;2023-07-31T08:19:14;4.43;;;1.60;;
74793;SDS011;63320;50.768;6.724;2023-07-31T08:21:40;8.98;;;2.17;;
74793;SDS011;63320;50.768;6.724;2023-07-31T08:24:05;5.15;;;1.95;;
74793;SDS011;63320;50.768;6.724;2023-07-31T08:26:30;8.52;;;1.98;;
74793;SDS011;63320;50.768;6.724;2023-07-31T08:28:56;6.18;;;1.80;;
74793;SDS011;63320;50.768;6.724;2023-07-31T08:31:22;4.82;;;1.75;;
74793;SDS011;63320;50.768;6.724;2023-07-31T08:33:48;5.10;;;1.80;;
74793;SDS011;63320;50.768;6.724;2023-07-31T08:36:13;5.20;;;1.77;;
74793;SDS011;63320;50.768;6.724;2023-07-31T08:38:38;5.57;;;1.80;;
74793;SDS011;63320;50.768;6.724;2023-07-31T08:41:04;6.60;;;1.90;;
74793;SDS011;63320;50.768;6.724;2023-07-31T08:43:29;5.05;;;1.80;;
74793;SDS011;63320;50.768;6.724;2023-07-31T08:45:55;6.80;;;1.63;;
74793;SDS011;63320;50.768;6.724;2023-07-31T08:48:23;4.32;;;1.45;;
74793;SDS011;63320;50.768;6.724;2023-07-31T08:50:49;6.07;;;1.95;;
74793;SDS011;63320;50.768;6.724;2023-07-31T08:53:14;4.88;;;1.63;;
74793;SDS011;63320;50.768;6.724;2023-07-31T08:55:40;6.57;;;2.17;;
74793;SDS011;63320;50.768;6.724;2023-07-31T08:58:05;5.00;;;1.48;;
74793;SDS011;63320;50.768;6.724;2023-07-31T09:00:31;5.20;;;1.67;;
74793;SDS011;63320;50.768;6.724;2023-07-31T09:02:59;8.43;;;1.80;;
74793;SDS011;63320;50.768;6.724;2023-07-31T09:05:28;5.47;;;1.63;;
74793;SDS011;63320;50.768;6.724;2023-07-31T09:07:55;4.85;;;1.70;;
74793;SDS011;63320;50.768;6.724;2023-07-31T09:10:21;6.05;;;1.60;;
74793;SDS011;63320;50.768;6.724;2023-07-31T09:12:46;4.85;;;1.50;;
74793;SDS011;63320;50.768;6.724;2023-07-31T09:15:13;6.45;;;1.80;;
74793;SDS011;63320;50.768;6.724;2023-07-31T09:17:39;4.32;;;1.50;;
74793;SDS011;63320;50.768;6.724;2023-07-31T09:20:14;4.50;;;1.70;;
74793;SDS011;63320;50.768;6.724;2023-07-31T09:22:42;5.20;;;1.60;;
74793;SDS011;63320;50.768;6.724;2023-07-31T09:25:14;5.32;;;1.90;;
74793;SDS011;63320;50.768;6.724;2023-07-31T09:27:47;5.97;;;1.77;;
74793;SDS011;63320;50.768;6.724;2023-07-31T09:30:14;5.97;;;1.77;;
74793;SDS011;63320;50.768;6.724;2023-07-31T09:32:40;6.15;;;1.90;;
74793;SDS011;63320;50.768;6.724;2023-07-31T09:35:12;4.65;;;1.83;;
74793;SDS011;63320;50.768;6.724;2023-07-31T09:37:44;4.80;;;1.52;;
74793;SDS011;63320;50.768;6.724;2023-07-31T09:40:14;5.47;;;1.70;;
74793;SDS011;63320;50.768;6.724;2023-07-31T09:42:50;5.07;;;1.70;;
74793;SDS011;63320;50.768;6.724;2023-07-31T09:45:15;5.07;;;1.67;;
74793;SDS011;63320;50.768;6.724;2023-07-31T09:47:45;6.10;;;1.70;;
74793;SDS011;63320;50.768;6.724;2023-07-31T09:50:11;4.82;;;1.83;;
74793;SDS011;63320;50.768;6.724;2023-07-31T09:52:38;6.00;;;1.90;;
74793;SDS011;63320;50.768;6.724;2023-07-31T09:55:05;4.57;;;1.90;;
74793;SDS011;63320;50.768;6.724;2023-07-31T09:57:31;5.07;;;1.90;;
74793;SDS011;63320;50.768;6.724;2023-07-31T09:59:58;7.57;;;1.73;;
74793;SDS011;63320;50.768;6.724;2023-07-31T10:02:23;5.40;;;1.80;;
74793;SDS011;63320;50.768;6.724;2023-07-31T10:04:50;6.85;;;1.98;;
74793;SDS011;63320;50.768;6.724;2023-07-31T10:07:16;4.90;;;1.70;;
74793;SDS011;63320;50.768;6.724;2023-07-31T10:09:43;6.82;;;1.85;;
74793;SDS011;63320;50.768;6.724;2023-07-31T10:12:11;5.50;;;2.00;;
74793;SDS011;63320;50.768;6.724;2023-07-31T10:17:06;5.47;;;1.90;;
74793;SDS011;63320;50.768;6.724;2023-07-31T10:19:33;6.30;;;1.85;;
74793;SDS011;63320;50.768;6.724;2023-07-31T10:21:59;5.53;;;2.00;;
74793;SDS011;63320;50.768;6.724;2023-07-31T10:24:25;6.03;;;1.70;;
74793;SDS011;63320;50.768;6.724;2023-07-31T10:26:52;4.57;;;1.58;;
74793;SDS011;63320;50.768;6.724;2023-07-31T10:29:23;4.85;;;1.33;;
74793;SDS011;63320;50.768;6.724;2023-07-31T10:31:49;5.95;;;1.45;;
74793;SDS011;63320;50.768;6.724;2023-07-31T10:34:17;4.75;;;1.30;;
74793;SDS011;63320;50.768;6.724;2023-07-31T10:36:43;4.82;;;1.30;;
74793;SDS011;63320;50.768;6.724;2023-07-31T10:39:32;3.75;;;1.10;;
74793;SDS011;63320;50.768;6.724;2023-07-31T10:41:59;3.55;;;1.35;;
74793;SDS011;63320;50.768;6.724;2023-07-31T10:44:25;4.25;;;1.20;;
74793;SDS011;63320;50.768;6.724;2023-07-31T10:46:54;4.03;;;1.30;;
74793;SDS011;63320;50.768;6.724;2023-07-31T10:49:20;3.33;;;0.90;;
74793;SDS011;63320;50.768;6.724;2023-07-31T10:51:46;3.30;;;1.13;;
74793;SDS011;63320;50.768;6.724;2023-07-31T10:54:13;3.03;;;0.90;;
74793;SDS011;63320;50.768;6.724;2023-07-31T10:56:40;3.50;;;0.88;;
74793;SDS011;63320;50.768;6.724;2023-07-31T10:59:09;3.33;;;1.00;;
74793;SDS011;63320;50.768;6.724;2023-07-31T11:01:51;2.30;;;0.93;;
74793;SDS011;63320;50.768;6.724;2023-07-31T11:06:54;2.42;;;0.70;;
74793;SDS011;63320;50.768;6.724;2023-07-31T11:09:20;4.47;;;1.10;;
74793;SDS011;63320;50.768;6.724;2023-07-31T11:11:45;4.80;;;1.00;;
74793;SDS011;63320;50.768;6.724;2023-07-31T11:14:11;1.67;;;0.50;;
74793;SDS011;63320;50.768;6.724;2023-07-31T11:16:36;2.83;;;0.90;;
74793;SDS011;63320;50.768;6.724;2023-07-31T11:19:03;5.18;;;0.93;;
74793;SDS011;63320;50.768;6.724;2023-07-31T11:21:33;3.03;;;0.98;;
74793;SDS011;63320;50.768;6.724;2023-07-31T11:23:58;3.45;;;1.30;;
74793;SDS011;63320;50.768;6.724;2023-07-31T11:26:24;2.88;;;0.80;;
74793;SDS011;63320;50.768;6.724;2023-07-31T11:28:50;2.63;;;1.13;;
74793;SDS011;63320;50.768;6.724;2023-07-31T11:31:15;1.80;;;0.60;;
74793;SDS011;63320;50.768;6.724;2023-07-31T11:33:41;2.55;;;0.80;;
74793;SDS011;63320;50.768;6.724;2023-07-31T11:36:15;1.90;;;0.70;;
74793;SDS011;63320;50.768;6.724;2023-07-31T11:38:40;2.30;;;0.68;;
74793;SDS011;63320;50.768;6.724;2023-07-31T11:41:06;1.70;;;0.60;;
74793;SDS011;63320;50.768;6.724;2023-07-31T11:43:31;3.67;;;0.75;;
74793;SDS011;63320;50.768;6.724;2023-07-31T11:45:57;1.35;;;0.63;;
74793;SDS011;63320;50.768;6.724;2023-07-31T11:48:23;2.25;;;0.60;;
74793;SDS011;63320;50.768;6.724;2023-07-31T11:50:50;2.03;;;0.80;;
74793;SDS011;63320;50.768;6.724;2023-07-31T11:53:18;2.47;;;0.80;;
74793;SDS011;63320;50.768;6.724;2023-07-31T11:55:46;1.52;;;0.68;;
74793;SDS011;63320;50.768;6.724;2023-07-31T11:58:13;2.22;;;0.90;;
74793;SDS011;63320;50.768;6.724;2023-07-31T12:00:40;1.50;;;0.85;;
74793;SDS011;63320;50.768;6.724;2023-07-31T12:03:05;3.03;;;0.98;;
74793;SDS011;63320;50.768;6.724;2023-07-31T12:05:32;3.08;;;1.10;;
74793;SDS011;63320;50.768;6.724;2023-07-31T12:07:57;3.13;;;1.23;;
74793;SDS011;63320;50.768;6.724;2023-07-31T12:10:25;3.00;;;1.05;;
74793;SDS011;63320;50.768;6.724;2023-07-31T12:12:55;3.13;;;1.17;;
74793;SDS011;63320;50.768;6.724;2023-07-31T12:15:21;4.57;;;1.50;;
74793;SDS011;63320;50.768;6.724;2023-07-31T12:17:47;4.63;;;1.42;;
74793;SDS011;63320;50.768;6.724;2023-07-31T12:20:12;4.35;;;1.65;;
74793;SDS011;63320;50.768;6.724;2023-07-31T12:22:38;4.68;;;1.80;;
74793;SDS011;63320;50.768;6.724;2023-07-31T12:25:03;3.92;;;1.67;;
74793;SDS011;63320;50.768;6.724;2023-07-31T12:27:32;4.60;;;1.70;;
74793;SDS011;63320;50.768;6.724;2023-07-31T12:29:58;4.15;;;1.67;;
74793;SDS011;63320;50.768;6.724;2023-07-31T12:32:24;4.13;;;1.77;;
74793;SDS011;63320;50.768;6.724;2023-07-31T12:34:50;4.32;;;1.92;;
74793;SDS011;63320;50.768;6.724;2023-07-31T12:37:15;4.97;;;2.08;;
74793;SDS011;63320;50.768;6.724;2023-07-31T12:39:41;4.43;;;2.22;;
74793;SDS011;63320;50.768;6.724;2023-07-31T12:42:06;5.30;;;2.20;;
74793;SDS011;63320;50.768;6.724;2023-07-31T12:44:33;5.03;;;2.25;;
74793;SDS011;63320;50.768;6.724;2023-07-31T12:46:58;5.63;;;2.20;;
74793;SDS011;63320;50.768;6.724;2023-07-31T12:49:23;4.32;;;2.20;;
74793;SDS011;63320;50.768;6.724;2023-07-31T12:51:49;5.28;;;2.47;;
74793;SDS011;63320;50.768;6.724;2023-07-31T12:54:14;5.47;;;2.55;;
74793;SDS011;63320;50.768;6.724;2023-07-31T12:56:40;5.28;;;2.38;;
74793;SDS011;63320;50.768;6.724;2023-07-31T12:59:05;4.82;;;2.05;;
74793;SDS011;63320;50.768;6.724;2023-07-31T13:01:32;6.28;;;2.22;;
74793;SDS011;63320;50.768;6.724;2023-07-31T13:03:57;5.82;;;2.00;;
74793;SDS011;63320;50.768;6.724;2023-07-31T13:06:22;5.15;;;1.98;;
74793;SDS011;63320;50.768;6.724;2023-07-31T13:08:48;4.50;;;2.10;;
74793;SDS011;63320;50.768;6.724;2023-07-31T13:11:13;5.15;;;2.20;;
74793;SDS011;63320;50.768;6.724;2023-07-31T13:13:38;4.55;;;2.03;;
74793;SDS011;63320;50.768;6.724;2023-07-31T13:16:04;4.93;;;2.35;;
74793;SDS011;63320;50.768;6.724;2023-07-31T13:18:30;4.10;;;1.92;;
74793;SDS011;63320;50.768;6.724;2023-07-31T13:20:56;5.65;;;2.20;;
74793;SDS011;63320;50.768;6.724;2023-07-31T13:23:21;4.85;;;2.08;;
74793;SDS011;63320;50.768;6.724;2023-07-31T13:25:46;5.10;;;1.80;;
74793;SDS011;63320;50.768;6.724;2023-07-31T13:28:12;4.00;;;1.80;;
74793;SDS011;63320;50.768;6.724;2023-07-31T13:30:37;5.05;;;2.03;;
74793;SDS011;63320;50.768;6.724;2023-07-31T13:33:02;4.35;;;2.08;;
74793;SDS011;63320;50.768;6.724;2023-07-31T13:35:29;4.13;;;1.70;;
74793;SDS011;63320;50.768;6.724;2023-07-31T13:37:54;4.85;;;1.80;;
74793;SDS011;63320;50.768;6.724;2023-07-31T13:40:20;3.50;;;1.73;;
74793;SDS011;63320;50.768;6.724;2023-07-31T13:42:45;4.80;;;1.75;;
74793;SDS011;63320;50.768;6.724;2023-07-31T13:45:11;5.57;;;1.92;;
74793;SDS011;63320;50.768;6.724;2023-07-31T13:47:36;4.55;;;1.70;;
74793;SDS011;63320;50.768;6.724;2023-07-31T13:50:01;3.95;;;1.45;;
74793;SDS011;63320;50.768;6.724;2023-07-31T13:52:28;6.50;;;1.95;;
74793;SDS011;63320;50.768;6.724;2023-07-31T13:54:54;4.55;;;1.80;;
74793;SDS011;63320;50.768;6.724;2023-07-31T13:57:19;4.18;;;1.73;;
74793;SDS011;63320;50.768;6.724;2023-07-31T13:59:44;5.50;;;2.15;;
74793;SDS011;63320;50.768;6.724;2023-07-31T14:02:10;4.47;;;1.95;;
74793;SDS011;63320;50.768;6.724;2023-07-31T14:04:35;5.68;;;2.03;;
74793;SDS011;63320;50.768;6.724;2023-07-31T14:07:00;4.85;;;1.80;;
74793;SDS011;63320;50.768;6.724;2023-07-31T14:09:27;4.25;;;1.80;;
74793;SDS011;63320;50.768;6.724;2023-07-31T14:11:52;4.72;;;1.98;;
74793;SDS011;63320;50.768;6.724;2023-07-31T14:14:18;3.90;;;1.88;;
74793;SDS011;63320;50.768;6.724;2023-07-31T14:16:43;3.63;;;1.67;;
74793;SDS011;63320;50.768;6.724;2023-07-31T14:19:08;4.47;;;1.80;;
74793;SDS011;63320;50.768;6.724;2023-07-31T14:21:34;4.32;;;2.00;;
74793;SDS011;63320;50.768;6.724;2023-07-31T14:23:59;5.10;;;2.30;;
74793;SDS011;63320;50.768;6.724;2023-07-31T14:26:26;5.25;;;2.10;;
74793;SDS011;63320;50.768;6.724;2023-07-31T14:28:51;5.40;;;1.80;;
74793;SDS011;63320;50.768;6.724;2023-07-31T14:31:16;5.35;;;1.92;;
74793;SDS011;63320;50.768;6.724;2023-07-31T14:33:42;4.68;;;2.30;;
74793;SDS011;63320;50.768;6.724;2023-07-31T14:36:07;7.25;;;2.40;;
74793;SDS011;63320;50.768;6.724;2023-07-31T14:38:32;5.22;;;1.98;;
74793;SDS011;63320;50.768;6.724;2023-07-31T14:40:58;6.03;;;2.60;;
74793;SDS011;63320;50.768;6.724;2023-07-31T14:43:24;5.32;;;2.58;;
74793;SDS011;63320;50.768;6.724;2023-07-31T14:45:50;5.47;;;2.20;;